Time;durP1;ratioP1;P1;durP2;ratioP2;P2;SDS_P1;SDS_P2;PMS_P1;PMS_P2;Temp;Humidity;BMP_temperature;BMP_pressure;BME280_temperature;BME280_humidity;BME280_pressure;Samples;Min_cycle;Max_cycle;Signal;HPM_P1;HPM_P2
2022/08/18 00:02:08;;;;;;;3.40;2.73;;;21.00;98.00;;;;;;5031604;28;20687;-70
2022/08/18 00:04:37;;;;;;;4.47;3.20;;;21.10;98.00;;;;;;5031200;28;20457;-70
2022/08/18 00:07:05;;;;;;;5.87;3.30;;;21.10;98.00;;;;;;5031471;28;20816;-70
2022/08/18 00:09:34;;;;;;;4.90;3.23;;;21.20;98.00;;;;;;5031600;28;20459;-70
2022/08/18 00:12:08;;;;;;;6.57;3.80;;;21.10;98.00;;;;;;5031303;28;20546;-71
2022/08/18 00:14:35;;;;;;;4.90;3.27;;;21.00;98.00;;;;;;5031504;28;20467;-71
2022/08/18 00:17:02;;;;;;;5.90;3.90;;;21.00;98.00;;;;;;5031463;28;20471;-70
2022/08/18 00:19:29;;;;;;;4.27;2.90;;;21.00;98.00;;;;;;5031667;28;20469;-71
2022/08/18 00:21:58;;;;;;;8.27;3.50;;;21.00;98.00;;;;;;5031558;28;20462;-70
2022/08/18 00:24:26;;;;;;;5.40;3.47;;;21.00;98.00;;;;;;5031445;28;20498;-70
2022/08/18 00:26:53;;;;;;;6.70;3.87;;;21.00;98.00;;;;;;5030700;28;20482;-71
2022/08/18 00:29:22;;;;;;;4.60;3.13;;;21.00;98.00;;;;;;5031221;28;20454;-70
2022/08/18 00:31:49;;;;;;;3.73;2.93;;;20.90;98.00;;;;;;5031254;28;20832;-70
2022/08/18 00:34:16;;;;;;;5.90;3.40;;;20.80;98.00;;;;;;5031474;28;20481;-70
2022/08/18 00:36:43;;;;;;;4.13;2.90;;;20.80;98.00;;;;;;5031289;28;20467;-71
2022/08/18 00:39:12;;;;;;;8.27;3.57;;;20.70;98.00;;;;;;5013432;28;20463;-70
2022/08/18 00:41:39;;;;;;;5.47;3.30;;;20.60;98.00;;;;;;5031161;28;20454;-70
2022/08/18 00:44:07;;;;;;;5.63;3.77;;;20.60;98.00;;;;;;5030996;28;20466;-70
2022/08/18 00:46:37;;;;;;;5.53;3.10;;;20.70;98.00;;;;;;5031107;28;20871;-70
2022/08/18 00:49:05;;;;;;;7.63;3.80;;;20.60;98.00;;;;;;5031210;28;20450;-70
2022/08/18 00:51:39;;;;;;;4.43;2.93;;;20.70;98.00;;;;;;5030975;28;20458;-70
2022/08/18 00:54:11;;;;;;;4.57;3.03;;;20.80;98.00;;;;;;5031201;28;20520;-70
2022/08/18 00:56:44;;;;;;;6.20;3.27;;;20.90;98.00;;;;;;5031046;28;20508;-70
2022/08/18 00:59:20;;;;;;;4.07;3.23;;;20.90;98.00;;;;;;5030973;28;20457;-70
2022/08/18 01:01:50;;;;;;;8.30;3.60;;;20.80;98.00;;;;;;5014228;28;20908;-70
2022/08/18 01:04:23;;;;;;;6.80;3.40;;;21.00;98.00;;;;;;5030764;28;20466;-70
2022/08/18 01:06:54;;;;;;;3.53;2.77;;;21.00;98.00;;;;;;5030906;28;20510;-70
2022/08/18 01:09:22;;;;;;;5.60;3.27;;;20.70;98.00;;;;;;5030898;28;20459;-70
2022/08/18 01:11:51;;;;;;;3.60;2.70;;;20.60;98.00;;;;;;5030829;28;20494;-70
2022/08/18 01:14:19;;;;;;;5.70;3.20;;;20.60;98.00;;;;;;5030803;28;20817;-70
2022/08/18 01:22:27;;;;;;;4.73;3.03;;;20.40;98.00;;;;;;5020040;28;20528;-70
2022/08/18 01:27:45;;;;;;;5.47;3.33;;;20.70;98.00;;;;;;5034635;28;20442;-70
2022/08/18 01:30:16;;;;;;;5.43;3.13;;;20.60;98.00;;;;;;5034736;28;20458;-71
2022/08/18 01:32:44;;;;;;;4.03;2.70;;;20.60;98.00;;;;;;5034413;28;20464;-70
2022/08/18 01:35:15;;;;;;;5.20;2.90;;;20.50;98.00;;;;;;5034388;28;20466;-70
2022/08/18 01:37:43;;;;;;;5.13;3.47;;;20.70;98.00;;;;;;5034249;28;20480;-70
2022/08/18 01:40:15;;;;;;;6.83;3.10;;;20.40;98.00;;;;;;5034306;28;20454;-70
2022/08/18 01:42:44;;;;;;;5.67;3.13;;;20.40;98.00;;;;;;5034339;28;20462;-70
2022/08/18 01:45:12;;;;;;;4.77;3.40;;;20.30;98.00;;;;;;5034186;28;20462;-71
2022/08/18 01:47:40;;;;;;;5.67;3.83;;;20.50;98.00;;;;;;5034097;28;20459;-70
2022/08/18 01:50:09;;;;;;;4.30;3.03;;;20.50;98.00;;;;;;5034262;28;20826;-70
2022/08/18 01:52:37;;;;;;;5.37;3.50;;;20.40;98.00;;;;;;5033973;28;20456;-70
2022/08/18 01:55:06;;;;;;;5.60;3.40;;;20.30;98.00;;;;;;5034036;28;20489;-70
2022/08/18 01:57:40;;;;;;;5.57;3.23;;;20.40;98.00;;;;;;5034103;28;20458;-71
2022/08/18 02:00:09;;;;;;;5.70;2.93;;;20.50;98.00;;;;;;5033939;28;20509;-70
2022/08/18 02:02:36;;;;;;;5.33;3.10;;;20.50;98.00;;;;;;5033759;28;20517;-71
2022/08/18 02:05:09;;;;;;;4.07;2.80;;;20.40;98.00;;;;;;5033790;28;20540;-70
2022/08/18 02:07:38;;;;;;;4.63;3.33;;;20.40;98.00;;;;;;5033510;28;20459;-70
2022/08/18 02:10:10;;;;;;;13.27;3.77;;;20.50;98.00;;;;;;5033758;28;20454;-70
2022/08/18 02:12:38;;;;;;;4.97;3.30;;;20.50;98.00;;;;;;5033676;28;20515;-70
2022/08/18 02:15:07;;;;;;;4.13;3.10;;;20.50;98.00;;;;;;5033786;28;20473;-70
2022/08/18 02:17:38;;;;;;;4.80;2.50;;;20.60;98.00;;;;;;5033663;28;20478;-70
2022/08/18 02:20:06;;;;;;;5.90;3.57;;;20.60;98.00;;;;;;5033707;28;20454;-70
2022/08/18 02:22:33;;;;;;;4.27;3.03;;;20.50;98.00;;;;;;5033809;28;20468;-70
2022/08/18 02:25:00;;;;;;;3.30;2.30;;;20.30;98.00;;;;;;5033689;28;20458;-70
2022/08/18 02:27:27;;;;;;;4.23;2.70;;;20.30;98.00;;;;;;5032815;28;20490;-70
2022/08/18 02:29:56;;;;;;;5.50;3.07;;;20.20;98.00;;;;;;5033443;28;20472;-70
2022/08/18 02:32:25;;;;;;;4.00;2.87;;;20.20;98.00;;;;;;5033303;28;20455;-70
2022/08/18 02:34:52;;;;;;;3.73;2.67;;;20.20;98.00;;;;;;5033349;28;20957;-70
2022/08/18 02:37:20;;;;;;;4.27;2.53;;;20.30;98.00;;;;;;5033356;28;20458;-71
2022/08/18 02:39:47;;;;;;;4.03;2.73;;;20.30;98.00;;;;;;5033270;28;20877;-70
2022/08/18 02:42:14;;;;;;;5.17;2.93;;;20.40;98.00;;;;;;5033197;28;20459;-70
2022/08/18 02:44:41;;;;;;;4.00;3.00;;;20.40;98.00;;;;;;5015522;28;20512;-70
2022/08/18 02:47:10;;;;;;;5.27;3.10;;;20.20;98.00;;;;;;5015311;28;20562;-70
2022/08/18 02:49:39;;;;;;;3.83;2.80;;;20.20;98.00;;;;;;5033004;28;20470;-70
2022/08/18 02:52:06;;;;;;;4.17;2.93;;;20.20;98.00;;;;;;5033134;28;20964;-70
2022/08/18 02:54:34;;;;;;;3.10;2.50;;;20.10;98.00;;;;;;5032853;28;20996;-70
2022/08/18 02:57:08;;;;;;;5.07;3.30;;;20.00;98.00;;;;;;5032826;28;20481;-70
2022/08/18 02:59:37;;;;;;;5.10;3.00;;;20.00;98.00;;;;;;5032702;28;20553;-70
2022/08/18 03:02:06;;;;;;;3.80;2.97;;;19.80;98.00;;;;;;5033024;28;20545;-70
2022/08/18 03:04:35;;;;;;;5.00;3.53;;;19.70;98.00;;;;;;5032628;28;20508;-70
2022/08/18 03:07:05;;;;;;;4.80;2.73;;;19.70;98.00;;;;;;5032682;28;20486;-70
2022/08/18 03:09:33;;;;;;;5.67;3.27;;;19.70;98.00;;;;;;5032631;28;20469;-70
2022/08/18 03:12:02;;;;;;;3.53;2.40;;;19.70;98.00;;;;;;5032554;28;20546;-70
2022/08/18 03:14:29;;;;;;;4.83;3.20;;;19.80;98.00;;;;;;5015070;28;20557;-70
2022/08/18 03:16:57;;;;;;;3.63;2.67;;;20.10;98.00;;;;;;5032421;28;20463;-71
2022/08/18 03:19:25;;;;;;;6.70;4.03;;;20.30;98.00;;;;;;5032419;28;20555;-70
2022/08/18 03:21:54;;;;;;;5.93;3.10;;;20.20;98.00;;;;;;5015005;28;20459;-70
2022/08/18 03:24:22;;;;;;;5.17;3.27;;;20.20;98.00;;;;;;5032531;28;20951;-70
2022/08/18 03:26:49;;;;;;;4.43;2.73;;;20.20;98.00;;;;;;5032351;28;20871;-70
2022/08/18 03:29:17;;;;;;;4.27;2.50;;;20.20;98.00;;;;;;5032365;28;20465;-70
2022/08/18 03:31:47;;;;;;;4.13;2.70;;;20.10;98.00;;;;;;5014814;28;20469;-70
2022/08/18 03:34:18;;;;;;;4.13;2.70;;;20.20;98.00;;;;;;5032064;28;20952;-70
2022/08/18 03:36:45;;;;;;;5.87;3.13;;;20.20;98.00;;;;;;5032191;28;20504;-70
2022/08/18 03:39:14;;;;;;;3.67;2.80;;;20.10;98.00;;;;;;5031325;28;20497;-70
2022/08/18 03:41:44;;;;;;;5.00;2.70;;;19.90;98.00;;;;;;5032088;28;20459;-70
2022/08/18 03:44:12;;;;;;;5.40;3.40;;;19.90;98.00;;;;;;5031696;28;20470;-70
2022/08/18 03:46:41;;;;;;;5.97;3.33;;;19.90;98.00;;;;;;5031768;28;20996;-70
2022/08/18 03:49:08;;;;;;;4.40;2.97;;;19.90;98.00;;;;;;5031618;28;20864;-70
2022/08/18 03:51:35;;;;;;;3.83;2.83;;;19.90;98.00;;;;;;5031887;28;20447;-70
2022/08/18 03:54:04;;;;;;;5.40;3.13;;;20.00;98.00;;;;;;5031718;28;20454;-70
2022/08/18 03:56:37;;;;;;;3.10;2.53;;;20.00;98.00;;;;;;5031801;28;20458;-70
2022/08/18 03:59:08;;;;;;;4.23;2.70;;;19.90;98.00;;;;;;5031639;28;20455;-70
2022/08/18 04:01:39;;;;;;;3.80;2.80;;;20.00;98.00;;;;;;5031392;28;20468;-70
2022/08/18 04:04:08;;;;;;;5.00;2.70;;;20.10;98.00;;;;;;5031458;28;20513;-71
2022/08/18 04:06:38;;;;;;;3.90;2.67;;;20.20;98.00;;;;;;5014133;28;20969;-70
2022/08/18 04:09:09;;;;;;;5.83;2.90;;;20.10;98.00;;;;;;5031534;28;20462;-70
2022/08/18 04:11:42;;;;;;;3.80;2.70;;;20.10;98.00;;;;;;5031531;28;20466;-70
2022/08/18 04:14:10;;;;;;;4.00;2.70;;;20.00;98.00;;;;;;5031326;28;21038;-70
2022/08/18 04:16:38;;;;;;;5.03;3.03;;;20.00;98.00;;;;;;5031419;28;20556;-70
2022/08/18 04:19:06;;;;;;;5.20;2.80;;;20.00;98.00;;;;;;5031379;28;20465;-70
2022/08/18 04:21:35;;;;;;;5.40;2.80;;;19.90;98.00;;;;;;5031611;28;20454;-70
2022/08/18 04:24:04;;;;;;;3.63;2.80;;;19.80;98.00;;;;;;5031530;28;20473;-70
2022/08/18 04:26:31;;;;;;;4.47;2.83;;;19.70;98.00;;;;;;5031374;28;20486;-70
2022/08/18 04:29:01;;;;;;;5.67;2.87;;;19.60;98.00;;;;;;5031185;28;20553;-70
2022/08/18 04:31:29;;;;;;;5.90;3.00;;;19.60;98.00;;;;;;5031268;28;20454;-70
2022/08/18 04:33:57;;;;;;;5.30;3.00;;;19.50;98.00;;;;;;5030765;28;20450;-70
2022/08/18 04:36:25;;;;;;;4.80;3.00;;;19.40;98.00;;;;;;5031322;28;20496;-70
2022/08/18 04:38:52;;;;;;;3.40;2.70;;;19.10;98.00;;;;;;5031212;28;20844;-70
2022/08/18 04:41:23;;;;;;;5.70;3.30;;;19.20;98.00;;;;;;5031749;28;20454;-70
2022/08/18 04:43:51;;;;;;;4.40;3.00;;;19.40;98.00;;;;;;5031771;28;20463;-70
2022/08/18 04:46:19;;;;;;;4.70;3.20;;;19.30;98.00;;;;;;5031589;28;20510;-70
2022/08/18 04:48:48;;;;;;;4.80;2.80;;;19.30;98.00;;;;;;5031574;28;20466;-70
2022/08/18 04:51:18;;;;;;;3.60;2.53;;;19.30;98.00;;;;;;5017829;28;20460;-70
2022/08/18 04:53:45;;;;;;;4.07;2.77;;;19.30;98.00;;;;;;5017800;28;20455;-70
2022/08/18 04:56:20;;;;;;;4.00;2.70;;;19.30;98.00;;;;;;5035163;28;20458;-70
2022/08/18 04:58:51;;;;;;;4.57;2.77;;;19.30;98.00;;;;;;5035037;28;20502;-70
2022/08/18 05:01:22;;;;;;;3.50;2.63;;;19.30;98.00;;;;;;5035092;28;20470;-70
2022/08/18 05:03:50;;;;;;;4.13;3.13;;;19.20;98.00;;;;;;5034966;28;20463;-71
2022/08/18 05:06:18;;;;;;;3.97;2.60;;;19.20;98.00;;;;;;5017524;28;20458;-70
2022/08/18 05:08:45;;;;;;;4.20;2.20;;;19.20;98.00;;;;;;5034904;28;20467;-70
2022/08/18 05:11:13;;;;;;;2.80;2.27;;;19.30;98.00;;;;;;5035040;28;20466;-70
2022/08/18 05:13:41;;;;;;;4.70;3.13;;;19.40;98.00;;;;;;5034620;28;20497;-70
2022/08/18 05:16:09;;;;;;;3.20;2.40;;;19.50;98.00;;;;;;5034758;28;20461;-70
2022/08/18 05:18:39;;;;;;;5.10;2.70;;;19.60;98.00;;;;;;5034296;28;20477;-70
2022/08/18 05:21:07;;;;;;;3.53;2.53;;;19.70;98.00;;;;;;5034821;28;20470;-70
2022/08/18 05:23:34;;;;;;;4.90;2.90;;;19.90;98.00;;;;;;5034947;28;20835;-70
2022/08/18 05:26:03;;;;;;;3.40;2.50;;;20.20;98.00;;;;;;5034786;28;20460;-70
2022/08/18 05:28:34;;;;;;;3.87;2.70;;;20.20;98.00;;;;;;5034539;28;20496;-70
2022/08/18 05:31:07;;;;;;;3.87;2.40;;;20.10;98.00;;;;;;5034560;28;20458;-70
2022/08/18 05:33:34;;;;;;;4.43;2.67;;;20.00;98.00;;;;;;5034344;28;20496;-70
2022/08/18 05:36:05;;;;;;;4.90;3.23;;;19.90;98.00;;;;;;5034379;28;20512;-70
2022/08/18 05:38:45;;;;;;;4.17;2.80;;;20.00;98.00;;;;;;5034311;28;20450;-70
2022/08/18 05:41:19;;;;;;;5.63;3.07;;;20.00;98.00;;;;;;5034309;28;20457;-70
2022/08/18 05:43:47;;;;;;;5.07;3.50;;;19.90;98.00;;;;;;5034349;28;20450;-70
2022/08/18 05:46:15;;;;;;;4.70;2.80;;;19.90;98.00;;;;;;5034169;28;20455;-70
2022/08/18 05:48:43;;;;;;;5.13;2.87;;;19.90;98.00;;;;;;5034115;28;20941;-71
2022/08/18 05:51:19;;;;;;;4.03;2.73;;;20.00;98.00;;;;;;5034124;28;20457;-70
2022/08/18 05:56:49;;;;;;;3.23;2.17;;;20.00;98.00;;;;;;5034043;28;20525;-70
2022/08/18 05:59:22;;;;;;;3.70;2.23;;;20.00;98.00;;;;;;5034095;28;20972;-70
2022/08/18 06:01:55;;;;;;;3.50;2.67;;;20.10;98.00;;;;;;5033018;28;20465;-70
2022/08/18 06:04:43;;;;;;;3.80;2.50;;;20.40;98.00;;;;;;5033595;28;20466;-70
2022/08/18 06:07:15;;;;;;;4.03;2.90;;;20.60;98.00;;;;;;5016730;28;20567;-70
2022/08/18 06:09:48;;;;;;;4.37;3.60;;;20.70;98.00;;;;;;5033812;28;20470;-70
2022/08/18 06:12:27;;;;;;;3.87;2.50;;;20.80;98.00;;;;;;5033801;28;20463;-68
2022/08/18 06:15:01;;;;;;;3.30;2.33;;;20.80;98.00;;;;;;5033583;28;20782;-69
2022/08/18 06:17:51;;;;;;;3.10;2.37;;;20.90;98.00;;;;;;5016784;28;20465;-68
2022/08/18 06:20:28;;;;;;;3.60;2.43;;;21.00;98.00;;;;;;5016061;28;20462;-68
2022/08/18 06:23:08;;;;;;;5.13;2.67;;;21.30;98.00;;;;;;5033704;28;20461;-69
2022/08/18 06:25:47;;;;;;;4.67;2.97;;;21.40;98.00;;;;;;5016364;28;20509;-69
2022/08/18 06:28:16;;;;;;;5.10;2.97;;;21.30;98.00;;;;;;5033377;28;20486;-69
2022/08/18 06:30:57;;;;;;;4.23;2.90;;;21.30;98.00;;;;;;5033398;28;20469;-68
2022/08/18 06:33:44;;;;;;;3.83;2.70;;;21.30;98.00;;;;;;5033358;28;20466;-70
2022/08/18 06:36:20;;;;;;;7.17;2.83;;;21.50;98.00;;;;;;5033550;28;20462;-68
2022/08/18 06:39:03;;;;;;;3.90;2.30;;;21.70;98.00;;;;;;5033287;28;20466;-68
2022/08/18 06:41:36;;;;;;;4.20;2.90;;;21.60;98.00;;;;;;5033564;28;20920;-68
2022/08/18 06:44:06;;;;;;;4.77;2.90;;;21.70;98.00;;;;;;5033220;28;20877;-69
2022/08/18 06:46:41;;;;;;;5.47;3.30;;;21.80;98.00;;;;;;5033167;28;20450;-70
2022/08/18 06:49:11;;;;;;;5.17;3.03;;;21.80;98.00;;;;;;5033122;28;20530;-69
2022/08/18 06:51:39;;;;;;;4.07;2.60;;;21.90;98.00;;;;;;5033345;28;20454;-69
2022/08/18 06:54:26;;;;;;;3.70;2.60;;;21.80;98.00;;;;;;5032884;28;20463;-70
2022/08/18 06:57:21;;;;;;;3.80;2.83;;;21.70;98.00;;;;;;5033029;28;20459;-69
2022/08/18 06:59:56;;;;;;;5.27;3.10;;;21.80;98.00;;;;;;5032817;28;20479;-69
2022/08/18 07:02:27;;;;;;;4.47;2.93;;;21.80;98.00;;;;;;5032808;28;20465;-69
2022/08/18 07:05:04;;;;;;;5.83;3.40;;;21.70;98.00;;;;;;5032539;28;20455;-68
2022/08/18 07:07:35;;;;;;;6.20;2.60;;;21.70;98.00;;;;;;5032457;28;20489;-68
2022/08/18 07:10:07;;;;;;;4.30;2.97;;;21.60;98.00;;;;;;5032625;28;21096;-68
2022/08/18 07:12:35;;;;;;;6.20;3.60;;;21.50;98.00;;;;;;5031726;28;20969;-69
2022/08/18 07:15:06;;;;;;;4.87;3.03;;;21.50;98.00;;;;;;5033321;28;20554;-68
2022/08/18 07:17:36;;;;;;;4.33;3.00;;;21.60;98.00;;;;;;5040010;28;20488;-68
2022/08/18 07:20:08;;;;;;;5.40;3.20;;;21.80;98.00;;;;;;5005787;28;20466;-69
2022/08/18 07:22:54;;;;;;;4.97;3.00;;;21.90;98.00;;;;;;5033267;28;20466;-68
2022/08/18 07:25:26;;;;;;;5.30;3.43;;;22.00;98.00;;;;;;5044939;28;20493;-68
2022/08/18 07:27:55;;;;;;;5.57;3.70;;;22.10;98.00;;;;;;5034265;28;20561;-68
2022/08/18 07:30:31;;;;;;;5.17;3.23;;;22.00;98.00;;;;;;5044863;28;20461;-69
2022/08/18 07:33:02;;;;;;;7.17;3.37;;;22.00;98.00;;;;;;5043918;28;20526;-68
2022/08/18 07:35:38;;;;;;;10.03;3.90;;;22.10;98.00;;;;;;5047975;28;20465;-69
2022/08/18 07:38:16;;;;;;;6.43;3.43;;;22.20;98.00;;;;;;5033559;28;20491;-69
2022/08/18 07:40:52;;;;;;;6.27;3.50;;;22.10;98.00;;;;;;5030510;28;20458;-69
2022/08/18 07:43:27;;;;;;;4.60;3.10;;;22.00;98.00;;;;;;5039817;28;20826;-69
2022/08/18 07:46:01;;;;;;;5.43;3.40;;;21.90;98.00;;;;;;5030480;28;20546;-69
2022/08/18 07:48:32;;;;;;;4.83;2.97;;;21.90;98.00;;;;;;5022759;28;20525;-69
2022/08/18 07:51:07;;;;;;;4.33;2.90;;;22.10;98.00;;;;;;5042163;28;20462;-69
2022/08/18 07:53:46;;;;;;;8.10;3.43;;;22.10;98.00;;;;;;5038734;28;20510;-68
2022/08/18 07:56:23;;;;;;;6.57;2.93;;;22.00;98.00;;;;;;5025005;28;20469;-69
2022/08/18 07:58:57;;;;;;;5.90;3.17;;;21.90;98.00;;;;;;5038075;28;20488;-68
2022/08/18 08:01:32;;;;;;;4.40;2.70;;;21.90;98.00;;;;;;5022058;28;20469;-69
2022/08/18 08:04:10;;;;;;;6.10;3.13;;;21.80;98.00;;;;;;5033065;28;20827;-69
2022/08/18 08:06:45;;;;;;;4.60;3.30;;;21.70;98.00;;;;;;5046526;28;20461;-69
2022/08/18 08:09:23;;;;;;;4.87;3.40;;;21.70;98.00;;;;;;5040448;28;20602;-69
2022/08/18 08:11:56;;;;;;;3.47;2.40;;;21.60;98.00;;;;;;5039179;28;20469;-68
2022/08/18 08:14:37;;;;;;;4.13;2.77;;;21.80;98.00;;;;;;5022202;28;20463;-69
2022/08/18 08:17:12;;;;;;;5.10;2.90;;;21.80;98.00;;;;;;5045522;28;20446;-69
2022/08/18 08:19:49;;;;;;;5.93;3.30;;;21.60;98.00;;;;;;5038132;28;20620;-69
2022/08/18 08:22:21;;;;;;;4.17;2.47;;;21.70;98.00;;;;;;5031757;28;20458;-68
2022/08/18 08:24:55;;;;;;;4.17;2.87;;;21.70;98.00;;;;;;5031140;28;20471;-68
2022/08/18 08:27:34;;;;;;;5.87;3.23;;;21.80;98.00;;;;;;5031433;28;20525;-68
2022/08/18 08:30:05;;;;;;;4.30;2.67;;;21.80;98.00;;;;;;5031224;28;20470;-68
2022/08/18 08:32:36;;;;;;;5.20;2.80;;;21.90;98.00;;;;;;5031689;28;20524;-69
2022/08/18 08:35:08;;;;;;;5.27;3.40;;;22.00;98.00;;;;;;5031299;28;20450;-68
2022/08/18 08:37:45;;;;;;;5.63;3.13;;;22.10;98.00;;;;;;5031598;28;20451;-69
2022/08/18 08:40:17;;;;;;;3.77;2.80;;;22.20;98.00;;;;;;5013878;28;20458;-69
2022/08/18 08:42:55;;;;;;;5.10;2.93;;;22.30;98.00;;;;;;5013909;28;20494;-68
2022/08/18 08:45:28;;;;;;;5.63;3.40;;;22.20;98.00;;;;;;5031320;28;20455;-69
2022/08/18 08:48:01;;;;;;;6.43;3.13;;;22.10;98.00;;;;;;5030956;28;20482;-68
2022/08/18 08:50:34;;;;;;;4.10;2.83;;;22.20;98.00;;;;;;5031171;28;20466;-68
2022/08/18 08:53:07;;;;;;;5.60;3.27;;;22.20;98.00;;;;;;5030944;28;20964;-69
2022/08/18 08:55:37;;;;;;;3.40;2.90;;;22.20;98.00;;;;;;5031256;28;20458;-69
2022/08/18 08:58:18;;;;;;;5.03;3.00;;;22.20;98.00;;;;;;5030882;28;20459;-69
2022/08/18 09:00:47;;;;;;;6.10;3.50;;;22.00;98.00;;;;;;5031027;28;20458;-68
2022/08/18 09:03:30;;;;;;;5.80;3.07;;;22.00;98.00;;;;;;5030880;28;20854;-68
2022/08/18 09:06:06;;;;;;;6.80;3.37;;;22.20;98.00;;;;;;5031003;28;20516;-69
2022/08/18 09:08:47;;;;;;;5.60;3.20;;;22.40;98.00;;;;;;5030885;28;20489;-68
2022/08/18 09:11:48;;;;;;;5.53;3.00;;;22.60;98.00;;;;;;5031061;28;20468;-69
2022/08/18 09:14:44;;;;;;;5.03;3.10;;;22.80;98.00;;;;;;5030484;28;20976;-69
2022/08/18 09:17:48;;;;;;;5.13;3.00;;;23.00;98.00;;;;;;5027487;28;20462;-69
2022/08/18 09:20:36;;;;;;;7.53;3.97;;;23.20;98.00;;;;;;5020858;28;20508;-69
2022/08/18 09:23:09;;;;;;;5.30;3.40;;;23.50;98.00;;;;;;5030877;28;20466;-68
2022/08/18 09:25:47;;;;;;;6.30;3.20;;;23.30;98.00;;;;;;5030998;28;20473;-68
2022/08/18 09:28:18;;;;;;;4.43;2.53;;;23.50;98.00;;;;;;5030949;28;20486;-69
2022/08/18 09:30:48;;;;;;;5.23;3.03;;;23.50;98.00;;;;;;5030903;28;20459;-69
2022/08/18 09:33:25;;;;;;;9.10;3.60;;;23.30;98.00;;;;;;5030660;28;20459;-68
2022/08/18 09:36:15;;;;;;;6.57;3.60;;;23.40;98.00;;;;;;5031389;28;20469;-70
2022/08/18 09:41:44;;;;;;;7.07;3.87;;;23.80;98.00;;;;;;5034540;28;20449;-69
2022/08/18 09:44:14;;;;;;;7.07;3.87;;;23.90;98.00;;;;;;5033351;28;20461;-69
2022/08/18 09:46:56;;;;;;;5.40;3.30;;;24.00;98.00;;;;;;5034391;28;20867;-68
2022/08/18 09:49:59;;;;;;;5.90;3.30;;;24.20;98.00;;;;;;5034185;28;20490;-67
2022/08/18 09:52:48;;;;;;;4.30;2.90;;;24.60;98.00;;;;;;5033414;28;20457;-68
2022/08/18 09:55:39;;;;;;;5.83;3.33;;;24.90;98.00;;;;;;5022982;28;20466;-67
2022/08/18 09:58:53;;;;;;;7.23;4.00;;;25.00;98.00;;;;;;5034033;28;20820;-67
2022/08/18 10:01:35;;;;;;;4.00;2.80;;;24.90;98.00;;;;;;4953246;29;20454;-67
2022/08/18 10:04:25;;;;;;;3.60;2.50;;;24.80;98.00;;;;;;5023052;28;20454;-67
2022/08/18 10:06:54;;;;;;;6.37;3.10;;;24.90;98.00;;;;;;5016496;28;20454;-67
2022/08/18 10:09:35;;;;;;;4.80;3.03;;;25.00;98.00;;;;;;5034334;28;20493;-67
2022/08/18 10:12:19;;;;;;;5.27;3.50;;;25.20;98.00;;;;;;5034283;28;20470;-64
2022/08/18 10:15:07;;;;;;;6.27;3.30;;;25.30;98.00;;;;;;5034157;28;20467;-64
2022/08/18 10:17:50;;;;;;;6.07;3.87;;;25.50;98.00;;;;;;5033994;28;20451;-65
2022/08/18 10:20:33;;;;;;;6.93;3.50;;;25.60;98.00;;;;;;5034220;28;20847;-65
2022/08/18 10:23:03;;;;;;;7.27;3.90;;;25.80;98.00;;;;;;5033872;28;20459;-65
2022/08/18 10:25:38;;;;;;;5.47;3.60;;;26.00;98.00;;;;;;5034190;28;20458;-64
2022/08/18 10:28:08;;;;;;;5.60;3.50;;;26.10;98.00;;;;;;5033845;28;20536;-65
2022/08/18 10:31:13;;;;;;;6.40;3.87;;;26.30;98.00;;;;;;5034071;28;20972;-65
2022/08/18 10:34:05;;;;;;;7.37;4.23;;;26.60;98.00;;;;;;5033867;28;20458;-66
2022/08/18 10:36:39;;;;;;;7.00;3.90;;;26.30;98.00;;;;;;5034038;28;20467;-64
2022/08/18 10:39:11;;;;;;;8.17;4.37;;;26.40;98.00;;;;;;5033515;28;20486;-65
2022/08/18 10:41:52;;;;;;;6.47;3.60;;;26.40;98.00;;;;;;5033673;28;20447;-62
2022/08/18 10:44:21;;;;;;;7.40;4.47;;;26.60;98.00;;;;;;5033352;28;20466;-68
2022/08/18 10:46:52;;;;;;;6.90;3.70;;;26.50;98.00;;;;;;5033267;28;20887;-68
2022/08/18 10:49:25;;;;;;;6.30;3.80;;;26.70;98.00;;;;;;5033654;28;20486;-68
2022/08/18 10:52:08;;;;;;;7.07;4.17;;;26.70;98.00;;;;;;5032243;28;20628;-68
2022/08/18 10:54:58;;;;;;;9.10;4.17;;;26.90;98.00;;;;;;5031341;28;20454;-68
2022/08/18 10:57:35;;;;;;;9.77;4.77;;;26.70;98.00;;;;;;5032754;28;20549;-68
2022/08/18 11:00:10;;;;;;;6.97;3.80;;;26.70;98.00;;;;;;5033396;28;20540;-68
2022/08/18 11:02:51;;;;;;;7.87;5.00;;;26.90;98.00;;;;;;5033246;28;20458;-68
2022/08/18 11:05:26;;;;;;;6.57;4.20;;;27.00;98.00;;;;;;5032793;28;20485;-67
2022/08/18 11:07:59;;;;;;;6.07;4.10;;;27.10;98.00;;;;;;5032786;28;20450;-68
2022/08/18 11:10:39;;;;;;;8.37;4.50;;;27.30;98.00;;;;;;5032660;28;20458;-68
2022/08/18 11:13:18;;;;;;;6.10;4.03;;;27.50;98.00;;;;;;5031897;28;20481;-67
2022/08/18 11:16:00;;;;;;;6.33;4.20;;;27.60;98.00;;;;;;5032626;28;20859;-67
2022/08/18 11:18:33;;;;;;;7.77;4.20;;;27.70;98.00;;;;;;5032355;28;20455;-67
2022/08/18 11:21:41;;;;;;;8.67;4.33;;;27.80;98.00;;;;;;5032496;28;20467;-67
2022/08/18 11:24:13;;;;;;;7.37;4.23;;;27.90;98.00;;;;;;5026353;28;20461;-67
2022/08/18 11:26:47;;;;;;;8.20;4.20;;;28.00;98.00;;;;;;5015460;28;20874;-67
2022/08/18 11:29:32;;;;;;;7.03;3.80;;;28.00;98.00;;;;;;5032365;28;20850;-67
2022/08/18 11:32:05;;;;;;;6.00;3.23;;;28.00;98.00;;;;;;5032815;28;20454;-68
2022/08/18 11:34:41;;;;;;;7.93;3.97;;;28.00;98.00;;;;;;5032884;28;20538;-68
2022/08/18 11:37:19;;;;;;;7.00;4.30;;;28.30;98.00;;;;;;5032650;28;20451;-68
2022/08/18 11:39:50;;;;;;;6.83;4.40;;;28.20;96.70;;;;;;5032685;28;20459;-68
2022/08/18 11:42:26;;;;;;;6.27;3.53;;;28.00;96.80;;;;;;5015497;28;20481;-67
2022/08/18 11:45:02;;;;;;;6.90;4.10;;;27.80;96.50;;;;;;5032586;28;20450;-68
2022/08/18 11:47:30;;;;;;;7.40;3.93;;;27.70;97.20;;;;;;5032583;28;20466;-68
2022/08/18 11:50:07;;;;;;;7.40;3.93;;;27.60;98.00;;;;;;5032320;28;20558;-68
2022/08/18 11:52:48;;;;;;;7.60;4.20;;;27.90;98.00;;;;;;5032757;28;20528;-67
2022/08/18 11:55:20;;;;;;;5.90;4.00;;;28.50;96.70;;;;;;5032446;28;20494;-63
2022/08/18 11:57:55;;;;;;;8.60;4.53;;;28.90;94.40;;;;;;5032563;28;20808;-61
2022/08/18 12:00:43;;;;;;;6.97;4.00;;;28.90;93.40;;;;;;5031928;28;20465;-62
2022/08/18 12:03:18;;;;;;;6.60;3.90;;;28.70;94.20;;;;;;5032484;28;20462;-61
2022/08/18 12:05:52;;;;;;;8.33;4.20;;;28.40;94.30;;;;;;5015631;28;20461;-61
2022/08/18 12:08:25;;;;;;;5.17;3.57;;;28.40;94.80;;;;;;5032146;28;20453;-62
2022/08/18 12:11:03;;;;;;;7.03;4.53;;;28.60;93.50;;;;;;5032430;28;20851;-65
2022/08/18 12:13:32;;;;;;;6.43;3.83;;;28.90;93.00;;;;;;5032019;28;20474;-66
2022/08/18 12:16:12;;;;;;;7.07;4.03;;;29.10;92.80;;;;;;5032328;28;20458;-66
2022/08/18 12:18:39;;;;;;;6.70;4.27;;;29.30;92.30;;;;;;5031861;28;20458;-65
2022/08/18 12:21:09;;;;;;;5.10;3.27;;;29.40;92.20;;;;;;5032147;28;20470;-64
2022/08/18 12:23:40;;;;;;;6.20;4.17;;;29.80;90.80;;;;;;5031917;28;20470;-64
2022/08/18 12:26:09;;;;;;;9.90;4.37;;;30.00;89.00;;;;;;5032150;28;20517;-63
2022/08/18 12:28:38;;;;;;;5.40;4.00;;;30.30;87.90;;;;;;5031846;28;20566;-65
2022/08/18 12:31:06;;;;;;;5.80;3.83;;;30.60;87.80;;;;;;5031665;28;20497;-65
2022/08/18 12:33:34;;;;;;;6.67;4.13;;;30.50;87.80;;;;;;5031675;28;20454;-64
2022/08/18 12:36:02;;;;;;;6.43;3.60;;;30.60;88.10;;;;;;5031643;28;20450;-67
2022/08/18 12:38:29;;;;;;;7.17;4.37;;;30.70;86.80;;;;;;5031680;28;20458;-63
2022/08/18 12:40:56;;;;;;;7.57;4.30;;;30.70;87.50;;;;;;5031462;28;20867;-69
2022/08/18 12:43:23;;;;;;;7.77;4.53;;;31.00;86.90;;;;;;5031756;28;20451;-69
2022/08/18 12:45:52;;;;;;;7.37;4.27;;;31.30;86.90;;;;;;5013986;28;20945;-69
2022/08/18 12:48:20;;;;;;;5.70;3.87;;;31.30;85.50;;;;;;5031563;28;20450;-69
2022/08/18 12:50:47;;;;;;;4.53;3.43;;;30.80;86.90;;;;;;5031647;28;20458;-68
2022/08/18 12:53:15;;;;;;;5.17;3.83;;;30.20;87.80;;;;;;5031832;28;20461;-69
2022/08/18 12:55:44;;;;;;;6.87;4.20;;;30.00;88.40;;;;;;5014112;28;20454;-69
2022/08/18 12:58:11;;;;;;;7.63;4.03;;;29.50;89.10;;;;;;5031778;28;20454;-69
2022/08/18 13:00:40;;;;;;;6.37;4.00;;;29.00;89.10;;;;;;5031749;28;20520;-70
2022/08/18 13:03:09;;;;;;;5.90;3.47;;;28.80;90.00;;;;;;5031822;28;20813;-69
2022/08/18 13:05:47;;;;;;;7.43;4.17;;;29.30;90.30;;;;;;5031836;28;20945;-68
2022/08/18 13:08:19;;;;;;;6.87;4.17;;;29.80;90.50;;;;;;5031337;28;20454;-69
2022/08/18 13:10:46;;;;;;;7.43;3.90;;;30.00;87.80;;;;;;5031704;28;21004;-69
2022/08/18 13:13:14;;;;;;;6.50;4.20;;;30.10;86.40;;;;;;5035256;28;20940;-69
2022/08/18 13:15:42;;;;;;;5.23;3.73;;;30.30;85.90;;;;;;5034403;28;20463;-70
2022/08/18 13:18:10;;;;;;;7.20;4.27;;;30.30;85.30;;;;;;5035050;28;20466;-64
2022/08/18 13:20:38;;;;;;;6.83;4.57;;;30.00;85.90;;;;;;5035448;28;20847;-67
2022/08/18 13:23:07;;;;;;;6.37;3.83;;;29.60;86.30;;;;;;5035083;28;20538;-68
2022/08/18 13:25:34;;;;;;;8.07;4.37;;;29.40;87.30;;;;;;5034623;28;20520;-67
2022/08/18 13:28:01;;;;;;;5.93;3.50;;;29.40;88.00;;;;;;5034977;28;20450;-67
2022/08/18 13:30:28;;;;;;;7.97;4.87;;;29.70;88.70;;;;;;5035052;28;20489;-67
2022/08/18 13:32:56;;;;;;;6.00;4.03;;;29.80;86.20;;;;;;5017622;28;20458;-67